Time;durP1;ratioP1;P1;durP2;ratioP2;P2;SDS_P1;SDS_P2;PMS_P1;PMS_P2;Temp;Humidity;BMP_temperature;BMP_pressure;BME280_temperature;BME280_humidity;BME280_pressure;Samples;Min_cycle;Max_cycle;Signal;HPM_P1;HPM_P2
2021/08/18 00:00:18;;;;;;;11.00;8.27;;;14.80;99.90;;;;;;5051449;28;20562;-69
2021/08/18 00:02:43;;;;;;;11.63;7.33;;;14.80;99.90;;;;;;5050993;28;20198;-69
2021/08/18 00:05:11;;;;;;;11.47;7.90;;;14.80;99.90;;;;;;5051433;28;20232;-68
2021/08/18 00:07:37;;;;;;;10.03;8.67;;;14.90;99.90;;;;;;5051253;28;20739;-68
2021/08/18 00:10:09;;;;;;;8.13;7.33;;;14.90;99.90;;;;;;5051350;28;20452;-68
2021/08/18 00:12:34;;;;;;;11.10;8.30;;;14.90;99.90;;;;;;5051058;28;20215;-68
2021/08/18 00:15:02;;;;;;;10.00;8.53;;;15.00;99.90;;;;;;5051276;28;20429;-69
2021/08/18 00:17:28;;;;;;;8.53;7.63;;;15.00;99.90;;;;;;5051056;28;20634;-68
2021/08/18 00:19:53;;;;;;;9.00;8.10;;;15.00;99.90;;;;;;5051382;28;20488;-68
2021/08/18 00:22:19;;;;;;;9.87;8.90;;;15.00;99.90;;;;;;5051207;28;20595;-68
2021/08/18 00:24:44;;;;;;;10.23;9.23;;;15.00;99.90;;;;;;5051144;28;20205;-68
2021/08/18 00:27:10;;;;;;;9.70;8.60;;;15.00;99.90;;;;;;5051184;28;20175;-68
2021/08/18 00:29:35;;;;;;;8.97;8.17;;;15.00;99.90;;;;;;5051077;28;20249;-68
2021/08/18 00:32:01;;;;;;;11.70;9.53;;;15.10;99.90;;;;;;5051054;28;20207;-68
2021/08/18 00:34:29;;;;;;;9.77;8.77;;;15.00;99.90;;;;;;5051424;28;20178;-68
2021/08/18 00:36:55;;;;;;;13.00;9.10;;;15.10;99.90;;;;;;5050826;28;20642;-67
2021/08/18 00:39:20;;;;;;;9.30;8.20;;;15.00;99.90;;;;;;5051080;28;20420;-69
2021/08/18 00:41:46;;;;;;;11.10;9.60;;;15.00;99.90;;;;;;5050834;28;20191;-68
2021/08/18 00:44:12;;;;;;;9.13;8.17;;;15.00;99.90;;;;;;5051061;28;20545;-68
2021/08/18 00:46:47;;;;;;;9.80;8.80;;;15.00;99.90;;;;;;5050851;28;20413;-67
2021/08/18 00:49:13;;;;;;;11.67;9.33;;;15.00;99.90;;;;;;5054432;28;20259;-67
2021/08/18 00:51:39;;;;;;;14.77;10.37;;;15.00;99.90;;;;;;5055107;28;20493;-71
2021/08/18 00:54:04;;;;;;;12.00;10.07;;;15.00;99.90;;;;;;5056214;28;20413;-71
2021/08/18 00:56:30;;;;;;;10.83;9.80;;;14.90;99.90;;;;;;5055892;28;20163;-71
2021/08/18 00:58:56;;;;;;;10.53;9.43;;;14.90;99.90;;;;;;5055740;28;20642;-71
2021/08/18 01:01:22;;;;;;;10.50;9.50;;;14.80;99.90;;;;;;5055709;28;20428;-70
2021/08/18 01:03:47;;;;;;;10.93;9.93;;;14.80;99.90;;;;;;5055844;28;20185;-70
2021/08/18 01:06:12;;;;;;;11.03;9.27;;;14.70;99.90;;;;;;5056476;28;20213;-71
2021/08/18 01:08:38;;;;;;;11.90;10.80;;;14.70;99.90;;;;;;5056568;28;20657;-71
2021/08/18 01:11:03;;;;;;;10.60;9.50;;;14.60;99.90;;;;;;5055870;28;20190;-70
2021/08/18 01:13:29;;;;;;;10.90;9.23;;;14.60;99.90;;;;;;5056385;28;20163;-71
2021/08/18 01:15:55;;;;;;;11.97;10.87;;;14.60;99.90;;;;;;5055088;28;20537;-72
2021/08/18 01:18:20;;;;;;;11.47;10.37;;;14.60;99.90;;;;;;5055344;28;20164;-71
2021/08/18 01:20:46;;;;;;;10.70;9.50;;;14.60;99.90;;;;;;5056142;28;20163;-71
2021/08/18 01:23:13;;;;;;;10.83;9.83;;;14.60;99.90;;;;;;5056119;28;20788;-71
2021/08/18 01:25:41;;;;;;;13.97;11.20;;;14.60;99.90;;;;;;5056033;28;20178;-72
2021/08/18 01:28:08;;;;;;;12.83;10.30;;;14.60;99.90;;;;;;5055746;28;20398;-71
2021/08/18 01:30:35;;;;;;;12.10;10.90;;;14.70;99.90;;;;;;5055719;28;20762;-72
2021/08/18 01:33:07;;;;;;;11.13;9.97;;;14.70;99.90;;;;;;5055863;28;20786;-72
2021/08/18 01:35:35;;;;;;;11.57;10.47;;;14.70;99.90;;;;;;5053126;28;20460;-72
2021/08/18 01:38:04;;;;;;;11.53;10.43;;;14.70;99.90;;;;;;5055594;28;20986;-71
2021/08/18 01:40:30;;;;;;;10.20;9.30;;;14.70;99.90;;;;;;5055295;28;20476;-72
2021/08/18 01:42:56;;;;;;;10.87;9.83;;;14.70;99.90;;;;;;5055235;28;20429;-71
2021/08/18 01:45:27;;;;;;;11.97;10.87;;;14.80;99.90;;;;;;5057381;28;20163;-73
2021/08/18 01:47:53;;;;;;;11.90;9.60;;;14.80;99.90;;;;;;5055547;28;20806;-71
2021/08/18 01:50:19;;;;;;;10.77;9.73;;;14.80;99.90;;;;;;5054580;28;20397;-71
2021/08/18 01:52:49;;;;;;;12.43;11.13;;;14.80;99.90;;;;;;5054987;28;20522;-71
2021/08/18 01:55:15;;;;;;;11.87;9.90;;;14.80;99.90;;;;;;5054819;28;20455;-73
2021/08/18 01:57:40;;;;;;;11.00;9.90;;;14.80;99.90;;;;;;5054698;28;20905;-72
2021/08/18 02:00:07;;;;;;;12.37;8.90;;;14.80;99.90;;;;;;5054371;28;20539;-72
2021/08/18 02:02:32;;;;;;;9.43;8.53;;;14.80;99.90;;;;;;5054577;28;20552;-72
2021/08/18 02:04:58;;;;;;;9.10;8.30;;;14.80;99.90;;;;;;5054963;28;20433;-72
2021/08/18 02:07:24;;;;;;;10.17;9.20;;;14.80;99.90;;;;;;5054630;28;20596;-71
2021/08/18 02:09:50;;;;;;;9.73;8.83;;;14.80;99.90;;;;;;5054255;28;20199;-71
2021/08/18 02:12:16;;;;;;;9.73;8.87;;;14.80;99.90;;;;;;5054172;28;20991;-72
2021/08/18 02:14:43;;;;;;;11.00;9.87;;;14.70;99.90;;;;;;5054457;28;20421;-71
2021/08/18 02:17:08;;;;;;;11.57;9.33;;;14.70;99.90;;;;;;5052593;28;20199;-71
2021/08/18 02:19:34;;;;;;;9.87;8.50;;;14.70;99.90;;;;;;5052412;28;20455;-71
2021/08/18 02:22:00;;;;;;;10.63;9.63;;;14.70;99.90;;;;;;5051063;28;20201;-70
2021/08/18 02:24:25;;;;;;;11.07;10.07;;;14.70;99.90;;;;;;5052548;28;20210;-71
2021/08/18 02:26:51;;;;;;;10.70;9.70;;;14.70;99.90;;;;;;5052357;28;20171;-70
2021/08/18 02:29:16;;;;;;;10.17;9.30;;;14.70;99.90;;;;;;5052736;28;20171;-71
2021/08/18 02:31:42;;;;;;;11.80;9.00;;;14.70;99.90;;;;;;5052424;28;20293;-70
2021/08/18 02:34:09;;;;;;;12.20;10.37;;;14.70;99.90;;;;;;5052642;28;20171;-70
2021/08/18 02:36:35;;;;;;;10.53;9.43;;;14.70;99.90;;;;;;5052332;28;20174;-70
2021/08/18 02:39:01;;;;;;;11.20;10.10;;;14.70;99.90;;;;;;5052177;28;20398;-71
2021/08/18 02:41:27;;;;;;;13.43;12.03;;;14.70;99.90;;;;;;5051814;28;20772;-71
2021/08/18 02:43:52;;;;;;;11.70;10.53;;;14.70;99.90;;;;;;5052098;28;20402;-70
2021/08/18 02:46:18;;;;;;;11.07;9.90;;;14.70;99.90;;;;;;5051858;28;20520;-71
2021/08/18 02:48:43;;;;;;;10.67;9.67;;;14.70;99.90;;;;;;5051724;28;20174;-71
2021/08/18 02:51:09;;;;;;;9.37;8.50;;;14.70;99.90;;;;;;5050138;28;20285;-70
2021/08/18 02:53:34;;;;;;;10.30;9.30;;;14.60;99.90;;;;;;5051766;28;20178;-70
2021/08/18 02:56:00;;;;;;;11.60;10.40;;;14.60;99.90;;;;;;5051662;28;20207;-71
2021/08/18 02:58:25;;;;;;;10.63;9.43;;;14.60;99.90;;;;;;5051669;28;20164;-70
2021/08/18 03:00:50;;;;;;;10.47;9.43;;;14.60;99.90;;;;;;5051607;28;20167;-71
2021/08/18 03:03:16;;;;;;;11.93;10.83;;;14.50;99.90;;;;;;5051372;28;20234;-71
2021/08/18 03:05:41;;;;;;;10.70;9.63;;;14.60;99.90;;;;;;5051549;28;20171;-70
2021/08/18 03:08:07;;;;;;;11.03;10.07;;;14.60;99.90;;;;;;5051255;28;20186;-71
2021/08/18 03:10:32;;;;;;;10.20;9.10;;;14.60;99.90;;;;;;5050902;28;20653;-71
2021/08/18 03:12:58;;;;;;;9.57;8.67;;;14.60;99.90;;;;;;5049463;28;20256;-70
2021/08/18 03:15:23;;;;;;;10.67;9.23;;;14.60;99.90;;;;;;5051373;28;20202;-71
2021/08/18 03:17:49;;;;;;;10.87;9.67;;;14.60;99.90;;;;;;5051047;28;20292;-70
2021/08/18 03:20:14;;;;;;;9.60;8.63;;;14.60;99.90;;;;;;5051345;28;20175;-70
2021/08/18 03:22:40;;;;;;;9.37;8.47;;;14.60;99.90;;;;;;5051133;28;20190;-70
2021/08/18 03:25:06;;;;;;;10.37;9.30;;;14.50;99.90;;;;;;5051210;28;20249;-70
2021/08/18 03:27:32;;;;;;;10.40;9.47;;;14.50;99.90;;;;;;5051510;28;20179;-71
2021/08/18 03:29:58;;;;;;;10.93;9.57;;;14.50;99.90;;;;;;5051108;28;20406;-71
2021/08/18 03:32:23;;;;;;;10.87;9.77;;;14.50;99.90;;;;;;5050985;28;20226;-70
2021/08/18 03:34:48;;;;;;;10.60;9.60;;;14.50;99.90;;;;;;5049619;28;20189;-71
2021/08/18 03:37:14;;;;;;;11.00;9.63;;;14.60;99.90;;;;;;5051290;28;20240;-70
2021/08/18 03:39:39;;;;;;;11.03;9.03;;;14.60;99.90;;;;;;5049809;28;20181;-70
2021/08/18 03:42:05;;;;;;;12.00;9.10;;;14.50;99.90;;;;;;5050945;28;20298;-71
2021/08/18 03:44:31;;;;;;;10.90;9.43;;;14.50;99.90;;;;;;5051491;28;20177;-71
2021/08/18 03:46:56;;;;;;;12.40;10.07;;;14.50;99.90;;;;;;5050784;28;20174;-70
2021/08/18 03:49:22;;;;;;;10.40;8.73;;;14.50;99.90;;;;;;5051140;28;20179;-71
2021/08/18 03:51:48;;;;;;;9.97;9.00;;;14.50;99.90;;;;;;5050876;28;20211;-70
2021/08/18 03:54:13;;;;;;;9.30;8.40;;;14.50;99.90;;;;;;5051110;28;20413;-70
2021/08/18 03:56:39;;;;;;;11.93;8.10;;;14.50;99.90;;;;;;5051043;28;20254;-71
2021/08/18 03:59:04;;;;;;;10.10;8.77;;;14.50;99.90;;;;;;5050902;28;20163;-70
2021/08/18 04:01:29;;;;;;;10.63;9.53;;;14.50;99.90;;;;;;5050714;28;20287;-70
2021/08/18 04:03:55;;;;;;;9.87;8.97;;;14.50;99.90;;;;;;5050711;28;20216;-70
2021/08/18 04:06:20;;;;;;;9.00;8.10;;;14.50;99.90;;;;;;5050950;28;20167;-70
2021/08/18 04:08:46;;;;;;;9.87;8.63;;;14.50;99.90;;;;;;5050677;28;20179;-71
2021/08/18 04:11:11;;;;;;;10.37;9.03;;;14.50;99.90;;;;;;5050905;28;20865;-70
2021/08/18 04:13:37;;;;;;;9.53;8.53;;;14.40;99.90;;;;;;5050740;28;20178;-71
2021/08/18 04:16:03;;;;;;;9.27;8.37;;;14.40;99.90;;;;;;5050734;28;20187;-71
2021/08/18 04:18:28;;;;;;;9.27;8.37;;;14.50;99.90;;;;;;5050599;28;20177;-71
2021/08/18 04:20:54;;;;;;;9.63;8.73;;;14.50;99.90;;;;;;5050793;28;20786;-70
2021/08/18 04:23:20;;;;;;;12.07;8.80;;;14.40;99.90;;;;;;5052926;28;20224;-70
2021/08/18 04:25:45;;;;;;;9.90;7.83;;;14.40;99.90;;;;;;5054575;28;20171;-70
2021/08/18 04:28:11;;;;;;;9.03;7.50;;;14.50;99.90;;;;;;5054724;28;20178;-72
2021/08/18 04:30:36;;;;;;;11.23;9.17;;;14.50;99.90;;;;;;5054738;28;20226;-71
2021/08/18 04:33:02;;;;;;;9.87;8.33;;;14.60;99.90;;;;;;5054858;28;20199;-72
2021/08/18 04:35:28;;;;;;;10.20;8.47;;;14.70;99.90;;;;;;5054979;28;20660;-72
2021/08/18 04:37:53;;;;;;;9.50;8.40;;;14.90;99.90;;;;;;5054942;28;20634;-70
2021/08/18 04:40:21;;;;;;;11.97;9.40;;;14.90;99.90;;;;;;5054824;28;20634;-72
2021/08/18 04:42:47;;;;;;;13.23;9.20;;;14.70;99.90;;;;;;5055183;28;20714;-72
2021/08/18 04:45:15;;;;;;;11.57;8.37;;;14.60;99.90;;;;;;5054189;28;20427;-71
2021/08/18 04:47:41;;;;;;;9.10;8.03;;;14.60;99.90;;;;;;5055461;28;20413;-71
2021/08/18 04:50:09;;;;;;;8.80;7.90;;;14.60;99.90;;;;;;5055289;28;20401;-71
2021/08/18 04:52:34;;;;;;;8.83;7.67;;;14.70;99.90;;;;;;5054955;28;20836;-71
2021/08/18 04:55:00;;;;;;;11.07;8.33;;;14.70;99.90;;;;;;5055208;28;20416;-71
2021/08/18 04:57:25;;;;;;;10.40;9.30;;;14.70;99.90;;;;;;5055568;28;20167;-72
2021/08/18 04:59:51;;;;;;;9.47;7.83;;;14.70;99.90;;;;;;5055200;28;20171;-71
2021/08/18 05:02:16;;;;;;;9.67;8.30;;;14.70;99.90;;;;;;5055154;28;20264;-71
2021/08/18 05:04:42;;;;;;;8.10;7.30;;;14.70;99.90;;;;;;5055463;28;20190;-70
2021/08/18 05:07:07;;;;;;;12.60;8.00;;;14.80;99.90;;;;;;5054712;28;20179;-71
2021/08/18 05:09:33;;;;;;;10.10;7.97;;;14.70;99.90;;;;;;5055031;28;20171;-71
2021/08/18 05:11:58;;;;;;;8.57;7.07;;;14.70;99.90;;;;;;5055096;28;20199;-71
2021/08/18 05:14:24;;;;;;;9.77;7.20;;;14.90;99.90;;;;;;5055736;28;20313;-72
2021/08/18 05:16:51;;;;;;;7.70;6.90;;;15.00;99.90;;;;;;5055531;28;20202;-72
2021/08/18 05:19:17;;;;;;;7.80;6.60;;;14.90;99.90;;;;;;5055214;28;20406;-71
2021/08/18 05:21:42;;;;;;;7.53;6.80;;;14.70;99.90;;;;;;5055186;28;20421;-72
2021/08/18 05:24:08;;;;;;;8.07;7.10;;;14.80;99.90;;;;;;5055128;28;20413;-71
2021/08/18 05:26:34;;;;;;;10.00;7.90;;;14.80;99.90;;;;;;5055367;28;20225;-72
2021/08/18 05:28:59;;;;;;;8.13;6.47;;;15.00;99.90;;;;;;5054646;28;20402;-71
2021/08/18 05:31:25;;;;;;;12.83;7.20;;;15.10;99.90;;;;;;5054660;28;20584;-71
2021/08/18 05:33:50;;;;;;;6.50;5.23;;;15.20;99.90;;;;;;5054621;28;20182;-72
2021/08/18 05:36:16;;;;;;;7.40;6.70;;;15.30;99.90;;;;;;5054598;28;20175;-71
2021/08/18 05:38:42;;;;;;;7.10;6.17;;;15.30;99.90;;;;;;5054551;28;20169;-71
2021/08/18 05:41:08;;;;;;;6.23;5.43;;;15.40;99.90;;;;;;5054346;28;20489;-71
2021/08/18 05:43:33;;;;;;;7.80;6.47;;;15.60;99.90;;;;;;5054837;28;20213;-70
2021/08/18 05:45:59;;;;;;;7.30;5.13;;;15.60;99.90;;;;;;5054929;28;20225;-72
2021/08/18 05:48:24;;;;;;;7.77;6.70;;;15.60;99.90;;;;;;5054744;28;20261;-72
2021/08/18 05:50:50;;;;;;;7.30;6.43;;;15.60;99.90;;;;;;5054764;28;20647;-72
2021/08/18 05:53:16;;;;;;;6.67;5.60;;;15.60;99.90;;;;;;5054579;28;20195;-71
2021/08/18 05:55:42;;;;;;;5.60;5.20;;;15.70;99.90;;;;;;5054396;28;20248;-71
2021/08/18 05:58:08;;;;;;;7.13;6.43;;;15.80;99.90;;;;;;5054446;28;20447;-71
2021/08/18 06:00:34;;;;;;;10.90;6.87;;;15.80;99.90;;;;;;5054557;28;20402;-72
2021/08/18 06:02:59;;;;;;;7.10;6.40;;;15.60;99.90;;;;;;5054050;28;20212;-72
2021/08/18 06:05:25;;;;;;;6.30;5.77;;;15.60;99.90;;;;;;5054322;28;20180;-71
2021/08/18 06:07:50;;;;;;;5.77;5.27;;;16.30;99.90;;;;;;5055313;28;20204;-73
2021/08/18 06:10:16;;;;;;;5.57;5.07;;;16.50;99.90;;;;;;5055343;28;20169;-72
2021/08/18 06:12:41;;;;;;;6.47;5.77;;;16.20;99.90;;;;;;5053689;28;20248;-72
2021/08/18 06:15:07;;;;;;;8.97;5.03;;;16.40;99.90;;;;;;5054056;28;20170;-71
2021/08/18 06:17:32;;;;;;;8.00;5.10;;;16.80;99.90;;;;;;5053730;28;20254;-72
2021/08/18 06:19:58;;;;;;;6.33;5.27;;;16.90;99.90;;;;;;5053433;28;20896;-72
2021/08/18 06:22:23;;;;;;;5.83;4.80;;;17.30;99.90;;;;;;5052966;28;20195;-69
2021/08/18 06:24:51;;;;;;;6.77;5.40;;;17.50;99.90;;;;;;5053366;28;20168;-71
2021/08/18 06:27:17;;;;;;;5.70;5.10;;;17.80;99.90;;;;;;5053439;28;20621;-73
2021/08/18 06:29:43;;;;;;;4.60;4.20;;;17.70;99.90;;;;;;5053175;28;20487;-71
2021/08/18 06:32:09;;;;;;;5.30;4.80;;;18.10;99.90;;;;;;5052157;28;20566;-70
2021/08/18 06:34:35;;;;;;;5.30;4.77;;;18.40;99.90;;;;;;5052133;28;20166;-73
2021/08/18 06:37:05;;;;;;;5.77;5.17;;;18.90;99.90;;;;;;5051984;28;20400;-72
2021/08/18 06:39:31;;;;;;;4.60;4.20;;;19.10;99.90;;;;;;5051883;28;20491;-70
2021/08/18 06:41:57;;;;;;;9.47;5.50;;;19.60;99.90;;;;;;5051805;28;20459;-73
2021/08/18 06:44:23;;;;;;;5.97;5.23;;;19.60;99.90;;;;;;5052389;28;20404;-69
2021/08/18 06:46:48;;;;;;;5.37;4.83;;;18.70;99.90;;;;;;5051511;28;20794;-70
2021/08/18 06:49:14;;;;;;;4.87;3.90;;;19.20;99.90;;;;;;5051846;28;20192;-70
2021/08/18 06:51:39;;;;;;;5.10;4.40;;;18.90;99.90;;;;;;5051595;28;20201;-69
2021/08/18 06:54:11;;;;;;;4.33;3.60;;;18.70;99.90;;;;;;5051701;28;20172;-70
2021/08/18 06:59:28;;;;;;;5.10;4.20;;;19.10;99.90;;;;;;5043842;28;20427;-69
2021/08/18 07:01:54;;;;;;;3.50;3.20;;;19.80;99.90;;;;;;5047507;28;20437;-70
2021/08/18 07:04:19;;;;;;;4.33;3.93;;;20.10;99.90;;;;;;5033414;28;20434;-69
2021/08/18 07:06:45;;;;;;;5.30;3.70;;;18.90;99.90;;;;;;5035680;28;20622;-70
2021/08/18 07:09:10;;;;;;;3.60;2.87;;;19.00;99.90;;;;;;5059757;28;20179;-70
2021/08/18 07:11:36;;;;;;;3.63;3.23;;;19.70;99.90;;;;;;5057644;28;20223;-70
2021/08/18 07:14:02;;;;;;;3.93;3.20;;;20.10;99.90;;;;;;5065131;28;20210;-71
2021/08/18 07:16:30;;;;;;;4.00;3.50;;;20.10;99.90;;;;;;5041484;28;20167;-70
2021/08/18 07:18:56;;;;;;;4.70;3.40;;;21.60;99.90;;;;;;5045854;28;20477;-71
2021/08/18 07:21:22;;;;;;;3.63;3.33;;;22.00;99.90;;;;;;5050284;28;20438;-71
2021/08/18 07:23:49;;;;;;;4.40;3.30;;;21.00;99.90;;;;;;5052276;28;20508;-71
2021/08/18 07:26:15;;;;;;;3.33;3.00;;;20.90;99.90;;;;;;5055192;28;20456;-70
2021/08/18 07:28:41;;;;;;;3.00;2.70;;;21.40;99.90;;;;;;5030891;28;20425;-70
2021/08/18 07:31:06;;;;;;;5.63;3.50;;;21.10;99.90;;;;;;5030940;28;20861;-72
2021/08/18 07:33:32;;;;;;;4.23;3.20;;;20.60;99.90;;;;;;5034194;28;20179;-71
2021/08/18 07:35:57;;;;;;;3.30;2.80;;;21.00;99.90;;;;;;5050080;28;20528;-70
2021/08/18 07:38:22;;;;;;;3.43;2.80;;;20.60;99.90;;;;;;5038088;28;20235;-70
2021/08/18 07:40:48;;;;;;;3.37;2.97;;;20.50;99.90;;;;;;5051979;28;20173;-72
2021/08/18 07:43:14;;;;;;;4.70;3.60;;;19.80;99.90;;;;;;5039594;28;20212;-72
2021/08/18 07:45:39;;;;;;;4.10;3.77;;;20.00;99.90;;;;;;5031455;28;20174;-72
2021/08/18 07:48:05;;;;;;;3.77;2.93;;;20.00;99.90;;;;;;5030915;28;20174;-72
2021/08/18 07:50:31;;;;;;;5.13;3.90;;;18.50;99.90;;;;;;5041225;28;20180;-71
2021/08/18 07:52:56;;;;;;;7.50;3.60;;;18.80;99.90;;;;;;5036911;28;20207;-72
2021/08/18 07:55:25;;;;;;;4.53;3.30;;;19.00;99.90;;;;;;5050636;28;20171;-71
2021/08/18 07:57:50;;;;;;;4.07;3.43;;;18.70;99.90;;;;;;5050624;28;20226;-71
2021/08/18 08:00:16;;;;;;;4.03;3.63;;;18.20;99.90;;;;;;5040938;28;20860;-71
2021/08/18 08:02:44;;;;;;;4.07;3.67;;;17.90;99.90;;;;;;5034620;28;20192;-71
2021/08/18 08:05:11;;;;;;;5.30;2.60;;;18.60;99.90;;;;;;5034688;28;20476;-72
2021/08/18 08:07:36;;;;;;;4.00;3.17;;;18.70;99.90;;;;;;5042553;28;20525;-72
2021/08/18 08:10:03;;;;;;;4.40;3.37;;;18.40;99.90;;;;;;5045313;28;20520;-71
2021/08/18 08:12:29;;;;;;;4.17;3.37;;;18.70;99.90;;;;;;5034532;28;20219;-69
2021/08/18 08:14:54;;;;;;;3.10;2.80;;;18.00;99.90;;;;;;5036336;28;20928;-69
2021/08/18 08:17:20;;;;;;;4.30;3.47;;;17.90;99.90;;;;;;5044462;28;20333;-71
2021/08/18 08:19:45;;;;;;;7.50;3.30;;;17.70;99.90;;;;;;5034317;28;20180;-70
2021/08/18 08:22:10;;;;;;;3.80;3.00;;;17.60;99.90;;;;;;5033046;28;20196;-70
2021/08/18 08:24:36;;;;;;;3.33;2.97;;;17.70;99.90;;;;;;5034727;28;20176;-70
2021/08/18 08:27:01;;;;;;;3.03;2.73;;;18.60;99.90;;;;;;5034725;28;20245;-70
2021/08/18 08:29:30;;;;;;;3.87;2.13;;;18.60;99.90;;;;;;5034397;28;20184;-71
2021/08/18 08:31:56;;;;;;;3.17;2.87;;;19.60;99.90;;;;;;5049225;28;20200;-72
2021/08/18 08:34:22;;;;;;;2.40;1.90;;;20.20;99.90;;;;;;5046683;28;20414;-70
2021/08/18 08:36:48;;;;;;;3.07;2.70;;;19.70;99.90;;;;;;5034138;28;20185;-71
2021/08/18 08:39:14;;;;;;;2.90;2.20;;;19.60;99.90;;;;;;5040812;28;20792;-70
2021/08/18 08:41:41;;;;;;;2.90;2.20;;;20.10;99.90;;;;;;5054193;28;20495;-70
2021/08/18 08:44:07;;;;;;;3.07;2.23;;;19.70;99.90;;;;;;5053995;28;20321;-71
2021/08/18 08:46:33;;;;;;;2.50;2.20;;;19.40;99.90;;;;;;5038939;28;20897;-71
2021/08/18 08:48:59;;;;;;;3.20;2.53;;;19.50;99.90;;;;;;5033827;28;20258;-70
2021/08/18 08:51:25;;;;;;;3.17;2.20;;;20.30;99.90;;;;;;5033996;28;20994;-70
2021/08/18 08:53:51;;;;;;;2.63;1.90;;;20.00;99.90;;;;;;5034096;28;20419;-72
2021/08/18 08:56:16;;;;;;;3.23;2.60;;;19.70;99.90;;;;;;5034131;28;20636;-71
2021/08/18 08:58:42;;;;;;;2.60;2.20;;;18.90;99.90;;;;;;5046365;28;20178;-70
2021/08/18 09:01:07;;;;;;;2.47;2.27;;;19.20;99.90;;;;;;5038273;28;20511;-69
2021/08/18 09:03:35;;;;;;;4.73;2.37;;;19.40;99.90;;;;;;5033503;28;20192;-71
2021/08/18 09:06:06;;;;;;;2.30;2.10;;;19.70;99.90;;;;;;5034728;28;20638;-71
2021/08/18 09:08:33;;;;;;;3.27;2.47;;;20.20;99.90;;;;;;5050848;28;20415;-71
2021/08/18 09:11:13;;;;;;;2.47;2.27;;;20.50;99.90;;;;;;5045777;28;20423;-71
2021/08/18 09:13:48;;;;;;;3.23;3.03;;;21.00;99.90;;;;;;5033838;28;20411;-71
2021/08/18 09:16:16;;;;;;;2.63;2.43;;;20.30;99.90;;;;;;5057386;28;20418;-71
2021/08/18 09:18:53;;;;;;;3.80;2.60;;;20.80;99.90;;;;;;5033671;28;20437;-69
2021/08/18 09:21:25;;;;;;;3.50;2.00;;;21.80;99.90;;;;;;5033707;28;20451;-71
2021/08/18 09:23:51;;;;;;;2.77;2.40;;;21.20;99.90;;;;;;5033520;28;20422;-71
2021/08/18 09:26:20;;;;;;;2.57;2.07;;;21.90;99.90;;;;;;5033843;28;20441;-71
2021/08/18 09:28:47;;;;;;;2.27;2.07;;;21.60;99.90;;;;;;5033239;28;20181;-69
2021/08/18 09:31:23;;;;;;;4.40;2.20;;;20.90;99.90;;;;;;5035892;28;20452;-70
2021/08/18 09:33:55;;;;;;;2.10;1.90;;;21.30;99.90;;;;;;5033531;28;20417;-70
2021/08/18 09:36:26;;;;;;;2.30;2.10;;;20.40;99.90;;;;;;5033090;28;20513;-70
2021/08/18 09:39:21;;;;;;;2.50;2.30;;;20.60;99.90;;;;;;5033243;28;20475;-70
2021/08/18 09:41:47;;;;;;;5.60;2.67;;;20.40;99.90;;;;;;5033013;28;20448;-71
2021/08/18 09:44:12;;;;;;;2.50;2.30;;;19.90;99.90;;;;;;5033058;28;20498;-70
2021/08/18 09:46:38;;;;;;;3.20;2.40;;;19.80;99.90;;;;;;5032952;28;20506;-70
2021/08/18 09:49:09;;;;;;;5.60;2.43;;;20.50;99.90;;;;;;5032868;28;20183;-70
2021/08/18 09:51:35;;;;;;;2.70;2.50;;;20.50;99.90;;;;;;5032390;28;20211;-71
2021/08/18 09:54:14;;;;;;;2.27;1.90;;;19.60;99.90;;;;;;5034645;28;20419;-71
2021/08/18 09:56:45;;;;;;;2.63;2.10;;;20.20;99.90;;;;;;5046118;28;20428;-70
2021/08/18 09:59:10;;;;;;;2.10;1.90;;;21.10;99.90;;;;;;5042821;28;20427;-70
2021/08/18 10:01:38;;;;;;;2.77;1.73;;;21.10;99.90;;;;;;5036399;28;20432;-73
2021/08/18 10:04:03;;;;;;;2.27;2.07;;;20.80;99.90;;;;;;5032261;28;20191;-71
2021/08/18 10:06:30;;;;;;;4.50;2.27;;;20.60;99.90;;;;;;5033586;28;20485;-71
2021/08/18 10:08:56;;;;;;;2.53;1.90;;;21.20;99.90;;;;;;5032478;28;20268;-69
2021/08/18 10:11:23;;;;;;;2.60;2.40;;;21.40;99.90;;;;;;5032186;28;21037;-71
2021/08/18 10:13:50;;;;;;;2.77;2.13;;;21.00;99.90;;;;;;5032501;28;20174;-71
2021/08/18 10:16:17;;;;;;;3.17;2.27;;;21.20;99.90;;;;;;5056406;28;20425;-71
2021/08/18 10:18:45;;;;;;;3.17;1.83;;;20.90;99.90;;;;;;5032125;28;20422;-70
2021/08/18 10:21:17;;;;;;;2.97;2.57;;;20.80;99.90;;;;;;5031657;28;20701;-70
2021/08/18 10:23:57;;;;;;;2.47;2.10;;;21.50;99.90;;;;;;5042152;28;20418;-70
2021/08/18 10:26:31;;;;;;;3.07;2.00;;;21.40;99.90;;;;;;5037661;28;20573;-71
2021/08/18 10:29:16;;;;;;;2.20;2.00;;;21.60;99.90;;;;;;5047897;28;20434;-70
2021/08/18 10:31:48;;;;;;;2.17;1.77;;;21.80;99.90;;;;;;5032134;28;20461;-69
2021/08/18 10:34:22;;;;;;;2.57;2.37;;;21.80;99.90;;;;;;5032213;28;20423;-71
2021/08/18 10:36:55;;;;;;;3.33;2.10;;;21.60;99.90;;;;;;5032192;28;20422;-70
2021/08/18 10:39:21;;;;;;;2.30;2.00;;;21.80;99.90;;;;;;5031926;28;20432;-71
2021/08/18 10:42:05;;;;;;;2.70;2.00;;;21.60;99.90;;;;;;5051625;28;20448;-70
2021/08/18 10:44:38;;;;;;;2.47;2.27;;;21.60;99.90;;;;;;5051121;28;20168;-70
2021/08/18 10:47:27;;;;;;;2.83;2.00;;;21.20;99.90;;;;;;5046698;28;20493;-71
2021/08/18 10:49:55;;;;;;;3.03;2.00;;;21.40;99.90;;;;;;5032008;28;20425;-70
2021/08/18 10:52:29;;;;;;;2.27;2.07;;;21.50;99.90;;;;;;5031556;28;20464;-72
2021/08/18 10:55:05;;;;;;;3.03;2.03;;;21.60;99.90;;;;;;5031511;28;20419;-70
2021/08/18 10:57:35;;;;;;;4.03;2.20;;;21.90;99.90;;;;;;5031525;28;20534;-70
2021/08/18 11:00:14;;;;;;;2.17;1.97;;;22.20;99.90;;;;;;5031363;28;20806;-71
2021/08/18 11:02:51;;;;;;;1.80;1.70;;;22.30;99.90;;;;;;5031325;28;20773;-70
2021/08/18 11:05:19;;;;;;;2.10;1.90;;;22.40;99.90;;;;;;5031243;28;20452;-71
2021/08/18 11:08:04;;;;;;;2.67;2.20;;;22.30;99.90;;;;;;5035345;28;20918;-71
2021/08/18 11:10:30;;;;;;;2.47;2.13;;;21.30;99.90;;;;;;5031107;28;20421;-71
2021/08/18 11:12:57;;;;;;;3.07;1.80;;;21.30;99.90;;;;;;5031106;28;20566;-70
2021/08/18 11:15:28;;;;;;;2.50;2.30;;;21.20;99.90;;;;;;5040814;28;20439;-70
2021/08/18 11:17:56;;;;;;;2.57;2.23;;;21.00;99.90;;;;;;5044407;28;20450;-71
2021/08/18 11:20:27;;;;;;;2.23;1.77;;;21.00;99.90;;;;;;5031108;28;20427;-72
2021/08/18 11:23:00;;;;;;;3.40;2.43;;;21.50;99.90;;;;;;5034094;28;20448;-71
2021/08/18 11:25:27;;;;;;;1.80;1.50;;;21.40;99.90;;;;;;5050983;28;20433;-72
2021/08/18 11:27:55;;;;;;;2.90;1.80;;;21.30;99.90;;;;;;5050912;28;20418;-71
2021/08/18 11:30:29;;;;;;;2.50;2.00;;;21.10;99.90;;;;;;5051069;28;20888;-71
2021/08/18 11:32:55;;;;;;;2.33;2.00;;;21.30;99.90;;;;;;5049722;28;21012;-71
2021/08/18 11:35:34;;;;;;;4.23;2.50;;;20.50;99.90;;;;;;5050740;28;20442;-71
2021/08/18 11:38:08;;;;;;;3.83;2.50;;;20.60;99.90;;;;;;5050676;28;20411;-71
2021/08/18 11:40:34;;;;;;;3.00;2.57;;;21.20;99.90;;;;;;5050824;28;20479;-72
2021/08/18 11:43:00;;;;;;;4.60;2.57;;;21.40;99.90;;;;;;5046131;28;20444;-71
2021/08/18 11:45:26;;;;;;;3.60;3.30;;;21.50;99.90;;;;;;5030905;28;20424;-70
2021/08/18 11:48:12;;;;;;;3.70;3.07;;;21.10;99.90;;;;;;5050919;28;20426;-73
2021/08/18 11:50:49;;;;;;;3.33;2.17;;;20.60;99.90;;;;;;5051054;28;21013;-74
2021/08/18 11:53:16;;;;;;;4.17;2.27;;;20.70;99.90;;;;;;5050632;28;20551;-71
2021/08/18 11:55:42;;;;;;;3.00;2.40;;;20.50;99.90;;;;;;5050585;28;20416;-72
2021/08/18 11:58:08;;;;;;;4.40;2.77;;;20.60;99.90;;;;;;5031782;28;20435;-71
2021/08/18 12:00:35;;;;;;;5.83;2.60;;;20.80;99.90;;;;;;5030722;28;20168;-72
2021/08/18 12:03:02;;;;;;;6.60;2.30;;;21.10;99.90;;;;;;5030496;28;20493;-72
2021/08/18 12:05:29;;;;;;;5.33;2.33;;;21.20;99.90;;;;;;5030631;28;20966;-71
2021/08/18 12:08:31;;;;;;;3.53;2.07;;;21.00;99.90;;;;;;5044081;28;20911;-72
2021/08/18 12:10:57;;;;;;;2.23;2.03;;;20.40;99.90;;;;;;5042269;28;20414;-71
2021/08/18 12:13:22;;;;;;;3.83;2.27;;;20.60;99.90;;;;;;5040014;28;20426;-72
2021/08/18 12:15:50;;;;;;;2.90;2.23;;;19.90;99.90;;;;;;5047286;28;20676;-70
2021/08/18 12:18:29;;;;;;;3.80;2.60;;;20.00;99.90;;;;;;5037813;28;20312;-69
2021/08/18 12:21:15;;;;;;;2.33;2.13;;;20.30;99.90;;;;;;5042530;28;20424;-72
2021/08/18 12:23:43;;;;;;;4.87;2.30;;;19.80;99.90;;;;;;5031635;28;20743;-71
2021/08/18 12:26:26;;;;;;;2.27;1.70;;;19.90;99.90;;;;;;5047351;28;20418;-71
2021/08/18 12:28:53;;;;;;;4.93;2.50;;;19.80;99.90;;;;;;5032677;28;20450;-71
2021/08/18 12:31:18;;;;;;;2.50;2.00;;;20.10;99.90;;;;;;5028985;28;20505;-71
2021/08/18 12:33:44;;;;;;;2.20;2.00;;;20.40;99.90;;;;;;5030701;28;20459;-70
2021/08/18 12:36:12;;;;;;;5.27;2.87;;;20.10;99.90;;;;;;5030345;28;20171;-71
2021/08/18 12:38:52;;;;;;;2.50;2.20;;;19.80;99.90;;;;;;5030512;28;20262;-71
2021/08/18 12:41:24;;;;;;;2.47;2.13;;;19.70;99.90;;;;;;5047686;28;20435;-71
2021/08/18 12:44:06;;;;;;;3.30;3.00;;;19.60;99.90;;;;;;5040480;28;20924;-72
2021/08/18 12:46:33;;;;;;;3.80;2.50;;;19.90;99.90;;;;;;5036115;28;20429;-74